KHHV

Hoover Diana

Hoover Diana, Texas, USA
METAR KHHV 230055Z AUTO 13013KT 10SM SCT020 BKN033 OVC120 27/24 A3000 RMK A01
Observed Flight Rules
Oct-23 @ 00:55 UTC (7 minutes ago) Visual Flight Rules
Wind Visibility Clouds
130° at 13 knots 10 miles
  • Scattered at 2,000' AGL
  • Broken at 3,300' AGL
  • Overcast at 12,000' AGL
Temperatures Readings
Current 27°C / 81°F
Dewpoint 24°C / 75°F
Humidity 84%
Altimeter 30" Hg
Pressure 1016 hPa
Elevation 25
METAR KHHV 230055Z AUTO 13013KT 10SM SCT020 BKN033 OVC120 27/24 A3000 RMK A01
Observed Flight Rules
Oct-23 @ 00:55 UTC
(7 minutes ago)
VFR
Wind Visibility
130° at 13 knots 10 miles
Clouds
  • Scattered at 2,000' AGL
  • Broken at 3,300' AGL
  • Overcast at 12,000' AGL
Temperature Dewpoint
27°C / 81°F 24°C / 75°F
Humidity Altimeter Pressure
84% 30" Hg 1016 hPa